sensor_id;sensor_type;location;lat;lon;timestamp;P1;durP1;ratioP1;P2;durP2;ratioP2
64351;SDS011;50680;52.626;-8.668;2023-03-14T00:01:26;9.15;;;0.60;;
64351;SDS011;50680;52.626;-8.668;2023-03-14T00:03:52;8.43;;;0.60;;
64351;SDS011;50680;52.626;-8.668;2023-03-14T00:06:19;4.35;;;0.70;;
64351;SDS011;50680;52.626;-8.668;2023-03-14T00:08:47;5.55;;;0.50;;
64351;SDS011;50680;52.626;-8.668;2023-03-14T00:11:15;11.05;;;0.93;;
64351;SDS011;50680;52.626;-8.668;2023-03-14T00:13:47;5.95;;;0.70;;
64351;SDS011;50680;52.626;-8.668;2023-03-14T00:16:17;12.02;;;0.80;;
64351;SDS011;50680;52.626;-8.668;2023-03-14T00:18:44;12.30;;;3.05;;
64351;SDS011;50680;52.626;-8.668;2023-03-14T00:21:11;15.25;;;1.50;;
64351;SDS011;50680;52.626;-8.668;2023-03-14T00:23:39;13.20;;;0.90;;
64351;SDS011;50680;52.626;-8.668;2023-03-14T00:26:11;6.50;;;0.80;;
64351;SDS011;50680;52.626;-8.668;2023-03-14T00:28:40;12.73;;;0.73;;
64351;SDS011;50680;52.626;-8.668;2023-03-14T00:31:09;8.05;;;1.10;;
64351;SDS011;50680;52.626;-8.668;2023-03-14T00:33:37;5.97;;;0.70;;
64351;SDS011;50680;52.626;-8.668;2023-03-14T00:36:05;7.20;;;0.52;;
64351;SDS011;50680;52.626;-8.668;2023-03-14T00:38:35;2.90;;;0.45;;
64351;SDS011;50680;52.626;-8.668;2023-03-14T00:41:09;5.57;;;0.40;;
64351;SDS011;50680;52.626;-8.668;2023-03-14T00:43:38;6.45;;;0.40;;
64351;SDS011;50680;52.626;-8.668;2023-03-14T00:46:05;6.03;;;0.55;;
64351;SDS011;50680;52.626;-8.668;2023-03-14T00:48:32;9.70;;;0.70;;
64351;SDS011;50680;52.626;-8.668;2023-03-14T00:51:00;7.88;;;0.70;;
64351;SDS011;50680;52.626;-8.668;2023-03-14T00:53:28;13.93;;;0.70;;
64351;SDS011;50680;52.626;-8.668;2023-03-14T00:55:54;8.32;;;0.70;;
64351;SDS011;50680;52.626;-8.668;2023-03-14T00:58:21;9.32;;;1.27;;
64351;SDS011;50680;52.626;-8.668;2023-03-14T01:00:48;5.03;;;0.70;;
64351;SDS011;50680;52.626;-8.668;2023-03-14T01:03:15;8.52;;;0.65;;
64351;SDS011;50680;52.626;-8.668;2023-03-14T01:05:42;6.63;;;0.80;;
64351;SDS011;50680;52.626;-8.668;2023-03-14T01:08:09;10.75;;;0.80;;
64351;SDS011;50680;52.626;-8.668;2023-03-14T01:10:39;7.13;;;0.73;;
64351;SDS011;50680;52.626;-8.668;2023-03-14T01:13:07;5.55;;;1.17;;
64351;SDS011;50680;52.626;-8.668;2023-03-14T01:15:35;8.88;;;1.27;;
64351;SDS011;50680;52.626;-8.668;2023-03-14T01:18:03;5.32;;;0.40;;
64351;SDS011;50680;52.626;-8.668;2023-03-14T01:20:30;5.88;;;0.85;;
64351;SDS011;50680;52.626;-8.668;2023-03-14T01:22:56;2.90;;;0.25;;
64351;SDS011;50680;52.626;-8.668;2023-03-14T01:25:23;1.42;;;0.32;;
64351;SDS011;50680;52.626;-8.668;2023-03-14T01:27:50;0.80;;;0.17;;
64351;SDS011;50680;52.626;-8.668;2023-03-14T01:30:17;0.75;;;0.20;;
64351;SDS011;50680;52.626;-8.668;2023-03-14T01:32:44;0.30;;;0.10;;
64351;SDS011;50680;52.626;-8.668;2023-03-14T01:35:10;1.02;;;0.10;;
64351;SDS011;50680;52.626;-8.668;2023-03-14T01:37:37;0.30;;;0.00;;
64351;SDS011;50680;52.626;-8.668;2023-03-14T01:40:04;0.10;;;0.10;;
64351;SDS011;50680;52.626;-8.668;2023-03-14T01:42:32;0.50;;;0.13;;
64351;SDS011;50680;52.626;-8.668;2023-03-14T01:45:00;0.70;;;0.20;;
64351;SDS011;50680;52.626;-8.668;2023-03-14T01:47:27;1.20;;;0.22;;
64351;SDS011;50680;52.626;-8.668;2023-03-14T01:50:04;0.80;;;0.10;;
64351;SDS011;50680;52.626;-8.668;2023-03-14T01:52:46;0.50;;;0.20;;
64351;SDS011;50680;52.626;-8.668;2023-03-14T01:55:22;3.65;;;0.82;;
64351;SDS011;50680;52.626;-8.668;2023-03-14T01:57:52;0.60;;;0.20;;
64351;SDS011;50680;52.626;-8.668;2023-03-14T02:00:22;0.32;;;0.30;;
64351;SDS011;50680;52.626;-8.668;2023-03-14T02:03:00;0.43;;;0.17;;
64351;SDS011;50680;52.626;-8.668;2023-03-14T02:05:32;0.20;;;0.20;;
64351;SDS011;50680;52.626;-8.668;2023-03-14T02:08:02;0.57;;;0.10;;
64351;SDS011;50680;52.626;-8.668;2023-03-14T02:10:35;0.10;;;0.10;;
64351;SDS011;50680;52.626;-8.668;2023-03-14T02:13:05;0.63;;;0.20;;
64351;SDS011;50680;52.626;-8.668;2023-03-14T02:15:33;0.10;;;0.10;;
64351;SDS011;50680;52.626;-8.668;2023-03-14T02:18:01;0.77;;;0.20;;
64351;SDS011;50680;52.626;-8.668;2023-03-14T02:22:58;0.95;;;0.20;;
64351;SDS011;50680;52.626;-8.668;2023-03-14T02:25:40;0.32;;;0.10;;
64351;SDS011;50680;52.626;-8.668;2023-03-14T02:28:12;0.68;;;0.20;;
64351;SDS011;50680;52.626;-8.668;2023-03-14T02:30:39;0.20;;;0.10;;
64351;SDS011;50680;52.626;-8.668;2023-03-14T02:33:08;2.00;;;0.10;;
64351;SDS011;50680;52.626;-8.668;2023-03-14T02:35:47;0.35;;;0.10;;
64351;SDS011;50680;52.626;-8.668;2023-03-14T02:38:29;0.22;;;0.13;;
64351;SDS011;50680;52.626;-8.668;2023-03-14T02:41:03;0.35;;;0.10;;
64351;SDS011;50680;52.626;-8.668;2023-03-14T02:43:29;1.48;;;0.10;;
64351;SDS011;50680;52.626;-8.668;2023-03-14T02:45:56;1.67;;;0.40;;
64351;SDS011;50680;52.626;-8.668;2023-03-14T02:48:27;0.68;;;0.40;;
64351;SDS011;50680;52.626;-8.668;2023-03-14T02:50:57;1.38;;;0.30;;
64351;SDS011;50680;52.626;-8.668;2023-03-14T02:53:27;0.40;;;0.08;;
64351;SDS011;50680;52.626;-8.668;2023-03-14T02:55:57;0.25;;;0.13;;
64351;SDS011;50680;52.626;-8.668;2023-03-14T02:58:24;0.80;;;0.22;;
64351;SDS011;50680;52.626;-8.668;2023-03-14T03:00:52;0.68;;;0.10;;
64351;SDS011;50680;52.626;-8.668;2023-03-14T03:03:19;0.40;;;0.10;;
64351;SDS011;50680;52.626;-8.668;2023-03-14T03:05:50;0.65;;;0.10;;
64351;SDS011;50680;52.626;-8.668;2023-03-14T03:08:18;1.08;;;0.30;;
64351;SDS011;50680;52.626;-8.668;2023-03-14T03:10:46;0.50;;;0.10;;
64351;SDS011;50680;52.626;-8.668;2023-03-14T03:13:14;1.23;;;0.20;;
64351;SDS011;50680;52.626;-8.668;2023-03-14T03:15:41;5.13;;;0.60;;
64351;SDS011;50680;52.626;-8.668;2023-03-14T03:18:08;1.67;;;0.40;;
64351;SDS011;50680;52.626;-8.668;2023-03-14T03:20:35;1.85;;;0.20;;
64351;SDS011;50680;52.626;-8.668;2023-03-14T03:23:02;1.83;;;0.25;;
64351;SDS011;50680;52.626;-8.668;2023-03-14T03:25:29;2.40;;;0.30;;
64351;SDS011;50680;52.626;-8.668;2023-03-14T03:27:56;0.50;;;0.20;;
64351;SDS011;50680;52.626;-8.668;2023-03-14T03:30:23;2.95;;;0.20;;
64351;SDS011;50680;52.626;-8.668;2023-03-14T03:32:50;1.30;;;0.57;;
64351;SDS011;50680;52.626;-8.668;2023-03-14T03:35:17;0.30;;;0.10;;
64351;SDS011;50680;52.626;-8.668;2023-03-14T03:37:43;0.70;;;0.10;;
64351;SDS011;50680;52.626;-8.668;2023-03-14T03:40:10;1.45;;;0.38;;
64351;SDS011;50680;52.626;-8.668;2023-03-14T03:42:37;4.60;;;1.55;;
64351;SDS011;50680;52.626;-8.668;2023-03-14T03:45:05;3.42;;;0.30;;
64351;SDS011;50680;52.626;-8.668;2023-03-14T03:47:32;2.10;;;0.20;;
64351;SDS011;50680;52.626;-8.668;2023-03-14T03:49:59;1.05;;;0.43;;
64351;SDS011;50680;52.626;-8.668;2023-03-14T03:52:25;1.70;;;0.22;;
64351;SDS011;50680;52.626;-8.668;2023-03-14T03:54:52;1.02;;;0.20;;
64351;SDS011;50680;52.626;-8.668;2023-03-14T03:57:19;5.97;;;0.30;;
64351;SDS011;50680;52.626;-8.668;2023-03-14T03:59:46;3.75;;;0.30;;
64351;SDS011;50680;52.626;-8.668;2023-03-14T04:02:13;1.25;;;0.20;;
64351;SDS011;50680;52.626;-8.668;2023-03-14T04:04:40;1.25;;;0.20;;
64351;SDS011;50680;52.626;-8.668;2023-03-14T04:07:07;4.47;;;0.30;;
64351;SDS011;50680;52.626;-8.668;2023-03-14T04:09:33;1.88;;;0.40;;
64351;SDS011;50680;52.626;-8.668;2023-03-14T04:12:00;2.50;;;0.20;;
64351;SDS011;50680;52.626;-8.668;2023-03-14T04:14:28;0.52;;;0.20;;
64351;SDS011;50680;52.626;-8.668;2023-03-14T04:16:55;2.53;;;0.50;;
64351;SDS011;50680;52.626;-8.668;2023-03-14T04:19:21;1.75;;;0.20;;
64351;SDS011;50680;52.626;-8.668;2023-03-14T04:21:48;1.98;;;0.38;;
64351;SDS011;50680;52.626;-8.668;2023-03-14T04:24:15;0.98;;;0.30;;
64351;SDS011;50680;52.626;-8.668;2023-03-14T04:26:41;5.78;;;0.30;;
64351;SDS011;50680;52.626;-8.668;2023-03-14T04:29:08;3.20;;;0.20;;
64351;SDS011;50680;52.626;-8.668;2023-03-14T04:31:38;1.90;;;0.70;;
64351;SDS011;50680;52.626;-8.668;2023-03-14T04:34:05;2.05;;;0.30;;
64351;SDS011;50680;52.626;-8.668;2023-03-14T04:36:32;1.58;;;0.15;;
64351;SDS011;50680;52.626;-8.668;2023-03-14T04:38:58;3.92;;;0.35;;
64351;SDS011;50680;52.626;-8.668;2023-03-14T04:41:25;3.05;;;0.28;;
64351;SDS011;50680;52.626;-8.668;2023-03-14T04:43:52;3.50;;;0.40;;
64351;SDS011;50680;52.626;-8.668;2023-03-14T04:46:18;3.28;;;0.30;;
64351;SDS011;50680;52.626;-8.668;2023-03-14T04:48:45;1.83;;;0.20;;
64351;SDS011;50680;52.626;-8.668;2023-03-14T04:51:12;3.65;;;0.40;;
64351;SDS011;50680;52.626;-8.668;2023-03-14T04:53:39;0.32;;;0.20;;
64351;SDS011;50680;52.626;-8.668;2023-03-14T04:56:06;1.73;;;0.85;;
64351;SDS011;50680;52.626;-8.668;2023-03-14T04:58:33;3.17;;;0.30;;
64351;SDS011;50680;52.626;-8.668;2023-03-14T05:01:03;3.88;;;0.25;;
64351;SDS011;50680;52.626;-8.668;2023-03-14T05:03:31;2.25;;;0.20;;
64351;SDS011;50680;52.626;-8.668;2023-03-14T05:05:58;0.57;;;0.13;;
64351;SDS011;50680;52.626;-8.668;2023-03-14T05:08:25;2.38;;;0.28;;
64351;SDS011;50680;52.626;-8.668;2023-03-14T05:10:53;2.65;;;0.40;;
64351;SDS011;50680;52.626;-8.668;2023-03-14T05:13:20;7.07;;;0.40;;
64351;SDS011;50680;52.626;-8.668;2023-03-14T05:15:47;2.13;;;0.10;;
64351;SDS011;50680;52.626;-8.668;2023-03-14T05:18:14;2.63;;;0.40;;
64351;SDS011;50680;52.626;-8.668;2023-03-14T05:20:41;3.80;;;0.30;;
64351;SDS011;50680;52.626;-8.668;2023-03-14T05:23:09;2.97;;;0.20;;
64351;SDS011;50680;52.626;-8.668;2023-03-14T05:25:36;2.35;;;0.52;;
64351;SDS011;50680;52.626;-8.668;2023-03-14T05:28:03;2.03;;;0.30;;
64351;SDS011;50680;52.626;-8.668;2023-03-14T05:30:30;2.65;;;0.20;;
64351;SDS011;50680;52.626;-8.668;2023-03-14T05:32:58;1.80;;;0.20;;
64351;SDS011;50680;52.626;-8.668;2023-03-14T05:35:25;1.70;;;0.35;;
64351;SDS011;50680;52.626;-8.668;2023-03-14T05:37:52;2.40;;;0.30;;
64351;SDS011;50680;52.626;-8.668;2023-03-14T05:40:18;0.80;;;0.20;;
64351;SDS011;50680;52.626;-8.668;2023-03-14T05:42:45;4.50;;;0.30;;
64351;SDS011;50680;52.626;-8.668;2023-03-14T05:45:12;0.98;;;0.30;;
64351;SDS011;50680;52.626;-8.668;2023-03-14T05:47:39;2.42;;;0.20;;
64351;SDS011;50680;52.626;-8.668;2023-03-14T05:50:06;4.47;;;0.20;;
64351;SDS011;50680;52.626;-8.668;2023-03-14T05:52:33;2.15;;;0.38;;
64351;SDS011;50680;52.626;-8.668;2023-03-14T05:54:59;4.88;;;0.30;;
64351;SDS011;50680;52.626;-8.668;2023-03-14T05:57:26;6.05;;;0.30;;
64351;SDS011;50680;52.626;-8.668;2023-03-14T05:59:53;4.68;;;0.30;;
64351;SDS011;50680;52.626;-8.668;2023-03-14T06:02:20;0.90;;;0.20;;
64351;SDS011;50680;52.626;-8.668;2023-03-14T06:04:46;1.98;;;0.22;;
64351;SDS011;50680;52.626;-8.668;2023-03-14T06:07:13;1.65;;;0.20;;
64351;SDS011;50680;52.626;-8.668;2023-03-14T06:09:40;1.73;;;0.20;;
64351;SDS011;50680;52.626;-8.668;2023-03-14T06:12:07;5.70;;;1.10;;
64351;SDS011;50680;52.626;-8.668;2023-03-14T06:14:34;2.30;;;0.30;;
64351;SDS011;50680;52.626;-8.668;2023-03-14T06:17:00;0.68;;;0.17;;
64351;SDS011;50680;52.626;-8.668;2023-03-14T06:19:27;1.83;;;0.30;;
64351;SDS011;50680;52.626;-8.668;2023-03-14T06:21:54;3.33;;;0.25;;
64351;SDS011;50680;52.626;-8.668;2023-03-14T06:24:21;3.55;;;0.60;;
64351;SDS011;50680;52.626;-8.668;2023-03-14T06:26:47;4.35;;;0.22;;
64351;SDS011;50680;52.626;-8.668;2023-03-14T06:29:14;2.13;;;0.30;;
64351;SDS011;50680;52.626;-8.668;2023-03-14T06:31:41;2.88;;;0.35;;
64351;SDS011;50680;52.626;-8.668;2023-03-14T06:34:08;1.23;;;0.40;;
64351;SDS011;50680;52.626;-8.668;2023-03-14T06:36:34;1.17;;;0.40;;
64351;SDS011;50680;52.626;-8.668;2023-03-14T06:39:01;1.65;;;0.28;;
64351;SDS011;50680;52.626;-8.668;2023-03-14T06:41:28;1.80;;;0.40;;
64351;SDS011;50680;52.626;-8.668;2023-03-14T06:43:55;4.45;;;0.40;;
64351;SDS011;50680;52.626;-8.668;2023-03-14T06:46:22;4.30;;;0.50;;
64351;SDS011;50680;52.626;-8.668;2023-03-14T06:48:49;6.50;;;1.50;;
64351;SDS011;50680;52.626;-8.668;2023-03-14T06:51:16;8.32;;;0.77;;
64351;SDS011;50680;52.626;-8.668;2023-03-14T06:53:43;6.45;;;1.00;;
64351;SDS011;50680;52.626;-8.668;2023-03-14T06:56:09;9.20;;;0.98;;
64351;SDS011;50680;52.626;-8.668;2023-03-14T06:58:36;7.90;;;0.65;;
64351;SDS011;50680;52.626;-8.668;2023-03-14T07:01:03;7.90;;;0.88;;
64351;SDS011;50680;52.626;-8.668;2023-03-14T07:03:31;9.65;;;1.15;;
64351;SDS011;50680;52.626;-8.668;2023-03-14T07:05:57;11.43;;;1.48;;
64351;SDS011;50680;52.626;-8.668;2023-03-14T07:08:25;15.30;;;2.63;;
64351;SDS011;50680;52.626;-8.668;2023-03-14T07:10:52;12.40;;;1.02;;
64351;SDS011;50680;52.626;-8.668;2023-03-14T07:13:19;17.50;;;2.28;;
64351;SDS011;50680;52.626;-8.668;2023-03-14T07:15:45;12.80;;;1.33;;
64351;SDS011;50680;52.626;-8.668;2023-03-14T07:18:12;12.13;;;0.98;;
64351;SDS011;50680;52.626;-8.668;2023-03-14T07:20:39;12.45;;;1.27;;
64351;SDS011;50680;52.626;-8.668;2023-03-14T07:23:06;12.43;;;1.73;;
64351;SDS011;50680;52.626;-8.668;2023-03-14T07:25:33;11.45;;;1.50;;
64351;SDS011;50680;52.626;-8.668;2023-03-14T07:27:59;17.40;;;2.70;;
64351;SDS011;50680;52.626;-8.668;2023-03-14T07:30:26;11.90;;;1.17;;
64351;SDS011;50680;52.626;-8.668;2023-03-14T07:32:53;12.10;;;0.70;;
64351;SDS011;50680;52.626;-8.668;2023-03-14T07:35:20;4.60;;;0.65;;
64351;SDS011;50680;52.626;-8.668;2023-03-14T07:37:47;6.90;;;0.88;;
64351;SDS011;50680;52.626;-8.668;2023-03-14T07:40:13;12.50;;;0.90;;
64351;SDS011;50680;52.626;-8.668;2023-03-14T07:42:42;6.45;;;0.85;;
64351;SDS011;50680;52.626;-8.668;2023-03-14T07:45:09;11.10;;;0.80;;
64351;SDS011;50680;52.626;-8.668;2023-03-14T07:47:37;9.85;;;0.93;;
64351;SDS011;50680;52.626;-8.668;2023-03-14T07:50:05;6.97;;;0.55;;
64351;SDS011;50680;52.626;-8.668;2023-03-14T07:52:32;5.57;;;1.23;;
64351;SDS011;50680;52.626;-8.668;2023-03-14T07:54:59;6.65;;;0.93;;
64351;SDS011;50680;52.626;-8.668;2023-03-14T07:57:26;2.75;;;0.60;;
64351;SDS011;50680;52.626;-8.668;2023-03-14T07:59:53;10.20;;;0.70;;
64351;SDS011;50680;52.626;-8.668;2023-03-14T08:02:19;6.97;;;0.50;;
64351;SDS011;50680;52.626;-8.668;2023-03-14T08:04:48;7.07;;;0.63;;
64351;SDS011;50680;52.626;-8.668;2023-03-14T08:07:16;7.68;;;0.95;;
64351;SDS011;50680;52.626;-8.668;2023-03-14T08:09:42;4.43;;;0.60;;
64351;SDS011;50680;52.626;-8.668;2023-03-14T08:12:09;15.18;;;1.35;;
64351;SDS011;50680;52.626;-8.668;2023-03-14T08:14:36;5.25;;;0.75;;
64351;SDS011;50680;52.626;-8.668;2023-03-14T08:17:03;4.95;;;0.60;;
64351;SDS011;50680;52.626;-8.668;2023-03-14T08:19:31;5.70;;;0.60;;
64351;SDS011;50680;52.626;-8.668;2023-03-14T08:21:58;4.88;;;0.70;;
64351;SDS011;50680;52.626;-8.668;2023-03-14T08:24:24;7.43;;;0.52;;
64351;SDS011;50680;52.626;-8.668;2023-03-14T08:26:51;7.40;;;0.73;;
64351;SDS011;50680;52.626;-8.668;2023-03-14T08:29:18;5.00;;;0.40;;
64351;SDS011;50680;52.626;-8.668;2023-03-14T08:31:45;7.97;;;0.75;;
64351;SDS011;50680;52.626;-8.668;2023-03-14T08:34:12;5.70;;;0.85;;
64351;SDS011;50680;52.626;-8.668;2023-03-14T08:36:39;7.95;;;1.05;;
64351;SDS011;50680;52.626;-8.668;2023-03-14T08:39:06;11.40;;;1.08;;
64351;SDS011;50680;52.626;-8.668;2023-03-14T08:41:34;5.75;;;1.13;;
64351;SDS011;50680;52.626;-8.668;2023-03-14T08:44:07;6.38;;;1.02;;
64351;SDS011;50680;52.626;-8.668;2023-03-14T08:46:35;9.80;;;0.80;;
64351;SDS011;50680;52.626;-8.668;2023-03-14T08:49:02;4.75;;;0.52;;
64351;SDS011;50680;52.626;-8.668;2023-03-14T08:51:29;5.88;;;0.90;;
64351;SDS011;50680;52.626;-8.668;2023-03-14T08:53:56;6.22;;;0.60;;
64351;SDS011;50680;52.626;-8.668;2023-03-14T08:56:22;6.65;;;0.65;;
64351;SDS011;50680;52.626;-8.668;2023-03-14T08:58:51;4.60;;;1.27;;
64351;SDS011;50680;52.626;-8.668;2023-03-14T09:01:18;4.25;;;0.70;;
64351;SDS011;50680;52.626;-8.668;2023-03-14T09:03:45;4.60;;;0.70;;
64351;SDS011;50680;52.626;-8.668;2023-03-14T09:06:14;4.57;;;1.02;;
64351;SDS011;50680;52.626;-8.668;2023-03-14T09:08:44;5.85;;;0.57;;
64351;SDS011;50680;52.626;-8.668;2023-03-14T09:11:11;7.45;;;0.68;;
64351;SDS011;50680;52.626;-8.668;2023-03-14T09:13:39;5.53;;;0.80;;
64351;SDS011;50680;52.626;-8.668;2023-03-14T09:16:06;3.75;;;0.60;;
64351;SDS011;50680;52.626;-8.668;2023-03-14T09:18:34;5.95;;;0.93;;
64351;SDS011;50680;52.626;-8.668;2023-03-14T09:21:01;1.42;;;0.20;;
64351;SDS011;50680;52.626;-8.668;2023-03-14T09:23:28;3.95;;;0.40;;
64351;SDS011;50680;52.626;-8.668;2023-03-14T09:25:55;3.13;;;0.47;;
64351;SDS011;50680;52.626;-8.668;2023-03-14T09:28:23;1.85;;;0.10;;
64351;SDS011;50680;52.626;-8.668;2023-03-14T09:30:50;1.17;;;0.13;;
64351;SDS011;50680;52.626;-8.668;2023-03-14T09:33:17;1.23;;;0.25;;
64351;SDS011;50680;52.626;-8.668;2023-03-14T09:35:44;7.43;;;1.17;;
64351;SDS011;50680;52.626;-8.668;2023-03-14T09:38:11;0.90;;;0.10;;
64351;SDS011;50680;52.626;-8.668;2023-03-14T09:40:38;1.02;;;0.15;;
64351;SDS011;50680;52.626;-8.668;2023-03-14T09:43:05;2.30;;;0.17;;
64351;SDS011;50680;52.626;-8.668;2023-03-14T09:45:36;3.08;;;0.10;;
64351;SDS011;50680;52.626;-8.668;2023-03-14T09:48:08;1.55;;;0.10;;
64351;SDS011;50680;52.626;-8.668;2023-03-14T09:50:42;1.08;;;0.10;;
64351;SDS011;50680;52.626;-8.668;2023-03-14T09:55:43;0.95;;;0.22;;
64351;SDS011;50680;52.626;-8.668;2023-03-14T09:58:13;0.17;;;0.08;;
64351;SDS011;50680;52.626;-8.668;2023-03-14T10:00:44;4.95;;;0.28;;
64351;SDS011;50680;52.626;-8.668;2023-03-14T10:05:38;1.92;;;0.17;;
64351;SDS011;50680;52.626;-8.668;2023-03-14T10:08:09;1.67;;;0.20;;
64351;SDS011;50680;52.626;-8.668;2023-03-14T10:10:37;0.63;;;0.10;;
64351;SDS011;50680;52.626;-8.668;2023-03-14T10:13:13;3.45;;;0.22;;
64351;SDS011;50680;52.626;-8.668;2023-03-14T10:16:16;1.05;;;0.10;;
64351;SDS011;50680;52.626;-8.668;2023-03-14T10:18:36;1.15;;;0.20;;
64351;SDS011;50680;52.626;-8.668;2023-03-14T10:21:05;1.13;;;0.17;;
64351;SDS011;50680;52.626;-8.668;2023-03-14T10:23:37;1.10;;;0.20;;
64351;SDS011;50680;52.626;-8.668;2023-03-14T10:26:11;0.60;;;0.20;;
64351;SDS011;50680;52.626;-8.668;2023-03-14T10:28:44;3.80;;;0.40;;
64351;SDS011;50680;52.626;-8.668;2023-03-14T10:31:11;0.80;;;0.30;;
64351;SDS011;50680;52.626;-8.668;2023-03-14T10:33:38;1.92;;;0.30;;
64351;SDS011;50680;52.626;-8.668;2023-03-14T10:36:17;1.65;;;0.90;;
64351;SDS011;50680;52.626;-8.668;2023-03-14T10:41:26;3.47;;;0.40;;
64351;SDS011;50680;52.626;-8.668;2023-03-14T10:43:57;1.20;;;0.30;;
64351;SDS011;50680;52.626;-8.668;2023-03-14T10:46:26;3.03;;;0.60;;
64351;SDS011;50680;52.626;-8.668;2023-03-14T10:48:57;1.60;;;0.52;;
64351;SDS011;50680;52.626;-8.668;2023-03-14T10:51:28;1.42;;;0.40;;
64351;SDS011;50680;52.626;-8.668;2023-03-14T10:54:00;1.67;;;0.40;;
64351;SDS011;50680;52.626;-8.668;2023-03-14T10:56:39;4.18;;;0.60;;
64351;SDS011;50680;52.626;-8.668;2023-03-14T10:59:15;5.70;;;0.40;;
64351;SDS011;50680;52.626;-8.668;2023-03-14T11:01:51;2.53;;;0.40;;
64351;SDS011;50680;52.626;-8.668;2023-03-14T11:07:40;2.53;;;0.57;;
64351;SDS011;50680;52.626;-8.668;2023-03-14T11:27:53;1.33;;;0.30;;
64351;SDS011;50680;52.626;-8.668;2023-03-14T11:30:32;0.90;;;0.30;;
64351;SDS011;50680;52.626;-8.668;2023-03-14T11:38:40;1.10;;;0.20;;
64351;SDS011;50680;52.626;-8.668;2023-03-14T11:41:23;1.08;;;0.30;;
64351;SDS011;50680;52.626;-8.668;2023-03-14T11:43:55;2.47;;;0.40;;
64351;SDS011;50680;52.626;-8.668;2023-03-14T11:46:38;2.53;;;0.40;;
64351;SDS011;50680;52.626;-8.668;2023-03-14T11:51:46;1.02;;;0.30;;
64351;SDS011;50680;52.626;-8.668;2023-03-14T11:57:05;1.73;;;0.45;;
64351;SDS011;50680;52.626;-8.668;2023-03-14T12:02:45;4.32;;;0.63;;
64351;SDS011;50680;52.626;-8.668;2023-03-14T12:13:16;3.58;;;0.50;;
64351;SDS011;50680;52.626;-8.668;2023-03-14T12:15:54;7.80;;;0.30;;
64351;SDS011;50680;52.626;-8.668;2023-03-14T12:18:35;1.45;;;0.20;;
64351;SDS011;50680;52.626;-8.668;2023-03-14T12:21:11;2.67;;;0.47;;
64351;SDS011;50680;52.626;-8.668;2023-03-14T12:26:26;1.52;;;0.30;;
64351;SDS011;50680;52.626;-8.668;2023-03-14T12:29:16;6.18;;;0.50;;
64351;SDS011;50680;52.626;-8.668;2023-03-14T12:31:45;3.65;;;0.32;;
64351;SDS011;50680;52.626;-8.668;2023-03-14T12:42:11;2.20;;;0.35;;
64351;SDS011;50680;52.626;-8.668;2023-03-14T12:45:15;4.20;;;0.52;;
64351;SDS011;50680;52.626;-8.668;2023-03-14T12:50:21;0.75;;;0.20;;
64351;SDS011;50680;52.626;-8.668;2023-03-14T12:52:56;5.70;;;0.45;;
64351;SDS011;50680;52.626;-8.668;2023-03-14T12:55:31;2.45;;;0.20;;
64351;SDS011;50680;52.626;-8.668;2023-03-14T12:58:27;1.55;;;0.35;;
64351;SDS011;50680;52.626;-8.668;2023-03-14T13:01:05;4.80;;;0.40;;
64351;SDS011;50680;52.626;-8.668;2023-03-14T13:03:45;2.08;;;0.38;;
64351;SDS011;50680;52.626;-8.668;2023-03-14T13:06:12;3.40;;;0.40;;
64351;SDS011;50680;52.626;-8.668;2023-03-14T13:09:01;0.70;;;0.10;;
64351;SDS011;50680;52.626;-8.668;2023-03-14T13:12:11;2.92;;;0.30;;
64351;SDS011;50680;52.626;-8.668;2023-03-14T13:14:43;6.40;;;0.35;;
64351;SDS011;50680;52.626;-8.668;2023-03-14T13:17:13;5.88;;;0.30;;
64351;SDS011;50680;52.626;-8.668;2023-03-14T13:20:11;2.40;;;0.30;;
64351;SDS011;50680;52.626;-8.668;2023-03-14T13:22:45;3.93;;;0.30;;
64351;SDS011;50680;52.626;-8.668;2023-03-14T13:25:13;4.22;;;0.38;;
64351;SDS011;50680;52.626;-8.668;2023-03-14T13:27:43;4.47;;;0.30;;
64351;SDS011;50680;52.626;-8.668;2023-03-14T13:30:20;2.47;;;0.20;;
64351;SDS011;50680;52.626;-8.668;2023-03-14T13:32:56;2.05;;;0.30;;
64351;SDS011;50680;52.626;-8.668;2023-03-14T13:35:27;3.83;;;0.47;;
64351;SDS011;50680;52.626;-8.668;2023-03-14T13:37:56;4.45;;;0.40;;
64351;SDS011;50680;52.626;-8.668;2023-03-14T13:40:43;2.47;;;0.30;;
64351;SDS011;50680;52.626;-8.668;2023-03-14T13:45:48;2.03;;;0.35;;
64351;SDS011;50680;52.626;-8.668;2023-03-14T13:48:46;1.08;;;0.25;;
64351;SDS011;50680;52.626;-8.668;2023-03-14T13:51:16;3.10;;;0.52;;
64351;SDS011;50680;52.626;-8.668;2023-03-14T13:53:46;0.57;;;0.10;;
64351;SDS011;50680;52.626;-8.668;2023-03-14T13:56:15;4.05;;;0.20;;
64351;SDS011;50680;52.626;-8.668;2023-03-14T13:58:47;1.10;;;0.30;;
64351;SDS011;50680;52.626;-8.668;2023-03-14T14:01:18;1.17;;;0.20;;
64351;SDS011;50680;52.626;-8.668;2023-03-14T14:06:27;2.45;;;0.15;;
64351;SDS011;50680;52.626;-8.668;2023-03-14T14:08:59;0.38;;;0.10;;
64351;SDS011;50680;52.626;-8.668;2023-03-14T14:14:29;1.80;;;0.73;;
64351;SDS011;50680;52.626;-8.668;2023-03-14T14:17:01;1.88;;;0.20;;
64351;SDS011;50680;52.626;-8.668;2023-03-14T14:19:31;1.67;;;0.10;;
64351;SDS011;50680;52.626;-8.668;2023-03-14T14:22:00;0.40;;;0.10;;
64351;SDS011;50680;52.626;-8.668;2023-03-14T14:24:29;0.85;;;0.17;;
64351;SDS011;50680;52.626;-8.668;2023-03-14T14:27:01;1.45;;;0.32;;
64351;SDS011;50680;52.626;-8.668;2023-03-14T14:29:43;3.00;;;0.22;;
64351;SDS011;50680;52.626;-8.668;2023-03-14T14:32:22;2.83;;;0.17;;
64351;SDS011;50680;52.626;-8.668;2023-03-14T14:34:56;1.95;;;0.28;;
64351;SDS011;50680;52.626;-8.668;2023-03-14T14:37:25;1.88;;;0.20;;
64351;SDS011;50680;52.626;-8.668;2023-03-14T14:39:59;1.30;;;0.22;;
64351;SDS011;50680;52.626;-8.668;2023-03-14T14:42:32;1.85;;;0.20;;
64351;SDS011;50680;52.626;-8.668;2023-03-14T14:45:00;2.63;;;0.30;;
64351;SDS011;50680;52.626;-8.668;2023-03-14T14:47:29;3.85;;;0.45;;
64351;SDS011;50680;52.626;-8.668;2023-03-14T14:49:58;6.18;;;0.50;;
64351;SDS011;50680;52.626;-8.668;2023-03-14T14:52:33;3.30;;;0.30;;
64351;SDS011;50680;52.626;-8.668;2023-03-14T14:55:11;4.90;;;0.30;;
64351;SDS011;50680;52.626;-8.668;2023-03-14T14:57:40;3.30;;;0.30;;
64351;SDS011;50680;52.626;-8.668;2023-03-14T15:00:21;3.40;;;0.30;;
64351;SDS011;50680;52.626;-8.668;2023-03-14T15:02:50;2.97;;;0.50;;
64351;SDS011;50680;52.626;-8.668;2023-03-14T15:05:21;2.55;;;0.60;;
64351;SDS011;50680;52.626;-8.668;2023-03-14T15:07:50;5.40;;;0.68;;
64351;SDS011;50680;52.626;-8.668;2023-03-14T15:10:21;4.82;;;0.60;;
64351;SDS011;50680;52.626;-8.668;2023-03-14T15:12:49;7.30;;;1.42;;
64351;SDS011;50680;52.626;-8.668;2023-03-14T15:15:17;7.50;;;1.30;;
64351;SDS011;50680;52.626;-8.668;2023-03-14T15:17:45;6.38;;;1.30;;
64351;SDS011;50680;52.626;-8.668;2023-03-14T15:20:12;9.50;;;1.77;;
64351;SDS011;50680;52.626;-8.668;2023-03-14T15:22:42;9.35;;;1.00;;
64351;SDS011;50680;52.626;-8.668;2023-03-14T15:25:09;2.72;;;0.38;;
64351;SDS011;50680;52.626;-8.668;2023-03-14T15:27:47;0.93;;;0.40;;
64351;SDS011;50680;52.626;-8.668;2023-03-14T15:30:15;1.98;;;0.38;;
64351;SDS011;50680;52.626;-8.668;2023-03-14T15:32:42;8.27;;;0.90;;
64351;SDS011;50680;52.626;-8.668;2023-03-14T15:35:09;4.95;;;0.60;;
64351;SDS011;50680;52.626;-8.668;2023-03-14T15:37:36;3.20;;;0.40;;
64351;SDS011;50680;52.626;-8.668;2023-03-14T15:40:03;3.28;;;0.60;;
64351;SDS011;50680;52.626;-8.668;2023-03-14T15:42:38;9.25;;;0.90;;
64351;SDS011;50680;52.626;-8.668;2023-03-14T15:45:05;5.53;;;1.17;;
64351;SDS011;50680;52.626;-8.668;2023-03-14T15:47:32;1.92;;;0.90;;
64351;SDS011;50680;52.626;-8.668;2023-03-14T15:49:58;3.97;;;1.27;;
64351;SDS011;50680;52.626;-8.668;2023-03-14T15:52:25;7.25;;;1.52;;
64351;SDS011;50680;52.626;-8.668;2023-03-14T15:54:52;5.88;;;0.73;;
64351;SDS011;50680;52.626;-8.668;2023-03-14T15:57:19;3.60;;;0.57;;
64351;SDS011;50680;52.626;-8.668;2023-03-14T15:59:46;2.70;;;0.50;;
64351;SDS011;50680;52.626;-8.668;2023-03-14T16:02:12;4.22;;;0.50;;